createdAt,value
2022-09-22T00:01:43.437Z,9.87
2022-09-22T00:04:15.193Z,10.20
2022-09-22T00:06:47.665Z,10.00
2022-09-22T00:09:17.736Z,8.23
2022-09-22T00:11:47.652Z,11.03
2022-09-22T00:14:17.875Z,12.23
2022-09-22T00:16:49.645Z,8.63
2022-09-22T00:19:19.582Z,10.53
2022-09-22T00:21:50.929Z,8.80
2022-09-22T00:24:22.778Z,8.70
2022-09-22T00:26:52.424Z,11.03
2022-09-22T00:29:21.199Z,14.67
2022-09-22T00:31:49.627Z,11.53
2022-09-22T00:34:20.194Z,11.40
2022-09-22T00:36:53.606Z,14.80
2022-09-22T00:39:22.319Z,13.43
2022-09-22T00:41:53.910Z,15.07
2022-09-22T00:44:36.094Z,15.47
2022-09-22T00:47:09.684Z,16.47
2022-09-22T00:49:45.809Z,15.27
2022-09-22T00:52:20.786Z,21.27
2022-09-22T00:54:51.553Z,15.13
2022-09-22T00:57:22.589Z,19.67
2022-09-22T00:59:53.872Z,18.07
2022-09-22T01:02:23.961Z,17.67
2022-09-22T01:04:53.903Z,18.40
2022-09-22T01:07:29.593Z,17.03
2022-09-22T01:09:59.092Z,22.90
2022-09-22T01:12:29.513Z,20.53
2022-09-22T01:15:10.932Z,22.33
2022-09-22T01:17:53.270Z,18.03
2022-09-22T01:21:09.266Z,19.30
2022-09-22T01:24:15.610Z,17.43
2022-09-22T01:27:17.233Z,19.40
2022-09-22T01:30:18.534Z,20.90
2022-09-22T01:33:08.749Z,20.53
2022-09-22T01:35:45.469Z,19.10
2022-09-22T01:38:22.372Z,18.07
2022-09-22T01:40:56.230Z,15.77
2022-09-22T01:43:37.847Z,17.87
2022-09-22T01:46:13.537Z,20.17
2022-09-22T01:48:46.481Z,17.03
2022-09-22T01:51:19.907Z,18.60
2022-09-22T01:53:54.423Z,17.17
2022-09-22T01:56:24.920Z,17.93
2022-09-22T01:58:56.717Z,19.10
2022-09-22T02:01:31.076Z,20.40
2022-09-22T02:04:05.663Z,20.63
2022-09-22T02:06:37.730Z,18.00
2022-09-22T02:09:11.118Z,20.33
2022-09-22T02:11:41.052Z,21.83
2022-09-22T02:14:09.994Z,17.47
2022-09-22T02:16:41.058Z,17.57
2022-09-22T02:19:13.881Z,23.53
2022-09-22T02:21:50.368Z,20.80
2022-09-22T02:24:31.695Z,22.23
2022-09-22T02:27:02.098Z,19.83
2022-09-22T02:29:33.758Z,21.37
2022-09-22T02:32:09.759Z,22.47
2022-09-22T02:34:38.445Z,25.23
2022-09-22T02:37:14.987Z,27.73
2022-09-22T02:39:50.102Z,22.40
2022-09-22T02:42:29.727Z,23.53
2022-09-22T02:45:06.906Z,23.57
2022-09-22T02:47:42.795Z,23.80
2022-09-22T02:50:13.681Z,27.33
2022-09-22T02:52:46.419Z,28.63
2022-09-22T02:55:16.300Z,24.57
2022-09-22T02:57:45.820Z,30.13
2022-09-22T03:00:15.044Z,28.73
2022-09-22T03:02:44.871Z,31.40
2022-09-22T03:05:13.258Z,29.10
2022-09-22T03:07:41.463Z,26.83
2022-09-22T03:10:11.211Z,27.20
2022-09-22T03:13:02.385Z,29.13
2022-09-22T03:15:31.578Z,31.30
2022-09-22T03:18:01.707Z,23.57
2022-09-22T03:20:30.040Z,26.30
2022-09-22T03:22:58.332Z,23.47
2022-09-22T03:25:26.793Z,22.53
2022-09-22T03:27:56.535Z,23.60
2022-09-22T03:30:24.998Z,24.03
2022-09-22T03:32:53.305Z,23.33
2022-09-22T03:35:23.716Z,24.27
2022-09-22T03:37:51.902Z,24.30
2022-09-22T03:40:22.436Z,25.87
2022-09-22T03:42:51.243Z,26.13
2022-09-22T03:45:19.788Z,22.27
2022-09-22T03:47:48.336Z,24.90
2022-09-22T03:50:16.582Z,22.70
2022-09-22T03:52:46.482Z,21.87
2022-09-22T03:55:14.929Z,21.90
2022-09-22T03:57:43.559Z,25.47
2022-09-22T04:00:14.539Z,23.53
2022-09-22T04:02:43.413Z,21.13
2022-09-22T04:05:12.413Z,20.53
2022-09-22T04:07:40.567Z,21.07
2022-09-22T04:10:11.001Z,22.43
2022-09-22T04:12:39.516Z,21.00
2022-09-22T04:15:09.030Z,23.37
2022-09-22T04:17:37.687Z,22.27
2022-09-22T04:20:07.466Z,19.70
2022-09-22T04:22:36.216Z,23.80
2022-09-22T04:25:05.082Z,18.03
2022-09-22T04:27:35.042Z,18.73
2022-09-22T04:30:07.431Z,20.13
2022-09-22T04:32:36.327Z,19.23
2022-09-22T04:35:05.047Z,18.73
2022-09-22T04:37:33.560Z,21.27
2022-09-22T04:40:02.016Z,20.67
2022-09-22T04:42:31.486Z,19.57
2022-09-22T04:45:02.320Z,18.20
2022-09-22T04:47:31.216Z,17.87
2022-09-22T04:49:59.707Z,17.37
2022-09-22T04:52:28.305Z,18.10
2022-09-22T04:54:59.021Z,16.97
2022-09-22T04:57:27.425Z,16.40
2022-09-22T04:59:55.728Z,15.17
2022-09-22T05:02:25.611Z,19.07
2022-09-22T05:04:53.997Z,20.40
2022-09-22T05:07:22.788Z,19.10
2022-09-22T05:09:51.031Z,15.30
2022-09-22T05:12:21.494Z,16.80
2022-09-22T05:14:50.104Z,14.50
2022-09-22T05:17:23.850Z,11.87
2022-09-22T05:19:56.125Z,12.63
2022-09-22T05:22:28.175Z,16.60
2022-09-22T05:24:56.363Z,16.23
2022-09-22T05:27:26.289Z,13.93
2022-09-22T05:29:54.447Z,15.40
2022-09-22T05:32:22.927Z,13.90
2022-09-22T05:34:56.187Z,11.77
2022-09-22T05:37:24.460Z,11.37
2022-09-22T05:39:52.678Z,12.93
2022-09-22T05:42:21.499Z,13.90
2022-09-22T05:44:50.004Z,16.13
2022-09-22T05:47:18.288Z,12.47
2022-09-22T05:49:47.158Z,16.93
2022-09-22T05:52:18.631Z,14.00
2022-09-22T05:54:46.722Z,15.27
2022-09-22T05:57:15.132Z,13.17
2022-09-22T05:59:43.294Z,14.03
2022-09-22T06:02:25.147Z,14.53
2022-09-22T06:04:54.322Z,13.90
2022-09-22T06:07:25.491Z,14.13
2022-09-22T06:09:54.303Z,11.67
2022-09-22T06:12:22.880Z,13.30
2022-09-22T06:14:51.256Z,13.80
2022-09-22T06:17:19.588Z,14.03
2022-09-22T06:19:50.619Z,11.73
2022-09-22T06:22:19.625Z,13.83
2022-09-22T06:24:49.630Z,13.10
2022-09-22T06:27:20.759Z,14.10
2022-09-22T06:29:49.128Z,12.93
2022-09-22T06:32:19.668Z,8.53
2022-09-22T06:34:48.029Z,10.63
2022-09-22T06:37:16.308Z,9.83
2022-09-22T06:39:44.382Z,13.97
2022-09-22T06:42:17.530Z,16.30
2022-09-22T06:44:46.268Z,13.47
2022-09-22T06:47:14.614Z,10.90
2022-09-22T06:49:43.393Z,11.40
2022-09-22T06:52:15.017Z,12.57
2022-09-22T06:54:44.384Z,10.33
2022-09-22T06:57:13.726Z,11.13
2022-09-22T06:59:44.751Z,14.43
2022-09-22T07:02:13.129Z,11.23
2022-09-22T07:04:41.459Z,13.23
2022-09-22T07:07:10.197Z,12.53
2022-09-22T07:09:38.460Z,15.23
2022-09-22T07:12:07.214Z,14.87
2022-09-22T07:14:35.335Z,13.47
2022-09-22T07:17:05.376Z,12.23
2022-09-22T07:19:36.335Z,10.30
2022-09-22T07:22:04.964Z,12.23
2022-09-22T07:24:33.334Z,15.23
2022-09-22T07:27:06.093Z,15.80
2022-09-22T07:29:34.827Z,11.03
2022-09-22T07:32:05.141Z,11.47
2022-09-22T07:34:33.731Z,11.67
2022-09-22T07:37:03.191Z,11.33
2022-09-22T07:39:31.361Z,7.63
2022-09-22T07:41:59.774Z,12.97
2022-09-22T07:44:45.027Z,10.47
2022-09-22T07:47:36.108Z,9.37
2022-09-22T07:50:06.719Z,8.33
2022-09-22T07:52:35.194Z,10.67
2022-09-22T07:55:04.051Z,10.77
2022-09-22T07:57:33.640Z,7.93
2022-09-22T08:00:02.142Z,10.57
2022-09-22T08:02:32.112Z,7.90
2022-09-22T08:05:03.469Z,7.77
2022-09-22T08:07:33.342Z,7.00
2022-09-22T08:10:01.895Z,7.03
2022-09-22T08:12:30.201Z,6.87
2022-09-22T08:15:02.342Z,8.93
2022-09-22T08:17:34.303Z,7.40
2022-09-22T08:20:05.320Z,8.07
2022-09-22T08:22:37.007Z,7.67
2022-09-22T08:25:06.659Z,5.53
2022-09-22T08:27:36.794Z,3.97
2022-09-22T08:30:09.328Z,6.53
2022-09-22T08:32:39.424Z,7.93
2022-09-22T08:35:09.286Z,4.40
2022-09-22T08:37:38.224Z,6.87
2022-09-22T08:40:08.193Z,7.33
2022-09-22T08:42:36.560Z,4.27
2022-09-22T08:45:09.433Z,4.87
2022-09-22T08:48:01.898Z,3.70
2022-09-22T08:50:56.228Z,4.50
2022-09-22T08:53:24.660Z,5.07
2022-09-22T08:56:00.658Z,3.40
2022-09-22T08:58:40.784Z,6.37
2022-09-22T09:01:25.357Z,4.90
2022-09-22T09:04:13.475Z,5.27
2022-09-22T09:06:48.613Z,3.70
2022-09-22T09:09:34.076Z,6.90
2022-09-22T09:12:12.682Z,4.77
2022-09-22T09:15:17.194Z,3.63
2022-09-22T09:17:48.665Z,5.97
2022-09-22T09:20:26.665Z,4.43
2022-09-22T09:22:56.211Z,5.27
2022-09-22T09:25:31.704Z,4.93
2022-09-22T09:28:03.324Z,6.33
2022-09-22T09:30:42.801Z,5.60
2022-09-22T09:33:19.649Z,5.03
2022-09-22T09:35:52.363Z,4.77
2022-09-22T09:38:27.637Z,3.90
2022-09-22T09:41:03.312Z,3.60
2022-09-22T09:43:33.678Z,4.20
2022-09-22T09:46:14.961Z,2.93
2022-09-22T09:48:58.826Z,3.20
2022-09-22T09:51:30.905Z,3.80
2022-09-22T09:54:05.639Z,2.67
2022-09-22T09:56:37.235Z,3.97
2022-09-22T09:59:24.572Z,1.73
2022-09-22T10:01:56.202Z,3.20
2022-09-22T10:04:33.796Z,5.00
2022-09-22T10:07:16.869Z,5.37
2022-09-22T10:09:49.128Z,1.60
2022-09-22T10:12:26.312Z,2.90
2022-09-22T10:14:56.332Z,5.07
2022-09-22T10:17:29.311Z,4.93
2022-09-22T10:20:24.332Z,3.33
2022-09-22T10:22:55.207Z,2.20
2022-09-22T10:25:26.241Z,2.73
2022-09-22T10:28:02.246Z,3.97
2022-09-22T10:30:33.114Z,3.03
2022-09-22T10:33:17.388Z,1.80
2022-09-22T10:35:47.641Z,3.83
2022-09-22T10:38:22.222Z,3.17
2022-09-22T10:40:58.037Z,3.60
2022-09-22T10:43:37.278Z,5.70
2022-09-22T10:46:19.256Z,2.27
2022-09-22T10:48:50.755Z,3.17
2022-09-22T10:51:34.320Z,2.83
2022-09-22T10:54:31.744Z,3.10
2022-09-22T10:57:10.317Z,4.23
2022-09-22T10:59:55.561Z,2.13
2022-09-22T11:03:06.721Z,5.70
2022-09-22T11:06:12.238Z,2.23
2022-09-22T11:09:06.158Z,2.20
2022-09-22T11:12:00.603Z,2.17
2022-09-22T11:14:42.986Z,3.07
2022-09-22T11:17:21.213Z,4.17
2022-09-22T11:20:02.748Z,1.50
2022-09-22T11:23:00.416Z,2.00
2022-09-22T11:25:44.928Z,1.40
2022-09-22T11:28:33.234Z,2.70
2022-09-22T11:31:02.018Z,2.37
2022-09-22T11:33:58.289Z,2.00
2022-09-22T11:36:42.752Z,4.83
2022-09-22T11:39:35.150Z,3.90
2022-09-22T11:42:17.823Z,5.97
2022-09-22T11:44:59.099Z,2.33
2022-09-22T11:47:41.424Z,1.17
2022-09-22T11:50:32.432Z,4.10
2022-09-22T11:53:23.418Z,3.10
2022-09-22T11:56:06.573Z,1.60
2022-09-22T11:58:41.290Z,2.20
2022-09-22T12:01:15.065Z,3.07
2022-09-22T12:03:47.852Z,2.70
2022-09-22T12:06:21.301Z,2.60
2022-09-22T12:08:56.748Z,1.70
2022-09-22T12:11:29.083Z,2.70
2022-09-22T12:13:59.176Z,2.73
2022-09-22T12:16:41.965Z,3.20
2022-09-22T12:19:22.018Z,5.87
2022-09-22T12:21:57.191Z,1.73
2022-09-22T12:24:25.748Z,3.03
2022-09-22T12:26:54.517Z,2.60
2022-09-22T12:29:29.170Z,3.63
2022-09-22T12:32:00.339Z,3.27
2022-09-22T12:34:34.121Z,4.17
2022-09-22T12:37:13.929Z,2.20
2022-09-22T12:39:44.761Z,3.43
2022-09-22T12:42:21.534Z,2.63
2022-09-22T12:44:54.960Z,2.97
2022-09-22T12:47:32.311Z,2.73
2022-09-22T12:50:07.089Z,3.23
2022-09-22T12:52:58.995Z,3.50
2022-09-22T12:55:38.363Z,2.77
2022-09-22T12:58:42.732Z,4.03
2022-09-22T13:01:35.613Z,2.50
2022-09-22T13:04:16.992Z,1.90
2022-09-22T13:07:06.595Z,6.07
2022-09-22T13:09:34.981Z,3.30
2022-09-22T13:12:25.580Z,2.40
2022-09-22T13:15:18.519Z,2.90
2022-09-22T13:17:48.437Z,3.50
2022-09-22T13:20:32.983Z,4.40
2022-09-22T13:23:12.162Z,2.57
2022-09-22T13:25:42.617Z,1.93
2022-09-22T13:28:16.613Z,1.43
2022-09-22T13:30:47.121Z,2.40
2022-09-22T13:33:24.800Z,1.50
2022-09-22T13:36:01.795Z,1.47
2022-09-22T13:38:31.317Z,2.23
2022-09-22T13:40:59.418Z,2.33
2022-09-22T13:43:35.355Z,1.23
2022-09-22T13:46:05.423Z,1.37
2022-09-22T13:48:36.821Z,1.80
2022-09-22T13:51:09.538Z,2.53
2022-09-22T13:53:39.022Z,1.57
2022-09-22T13:56:16.929Z,1.70
2022-09-22T13:58:50.293Z,2.33
2022-09-22T14:01:20.663Z,1.33
2022-09-22T14:03:50.667Z,1.70
2022-09-22T14:06:23.393Z,2.17
2022-09-22T14:08:53.355Z,1.57
2022-09-22T14:11:24.151Z,2.83
2022-09-22T14:14:01.404Z,1.87
2022-09-22T14:16:34.226Z,1.60
2022-09-22T14:19:06.778Z,1.83
2022-09-22T14:21:43.236Z,1.47
2022-09-22T14:24:15.288Z,2.00
2022-09-22T14:26:48.169Z,1.87
2022-09-22T14:29:20.928Z,1.27
2022-09-22T14:31:53.789Z,1.87
2022-09-22T14:34:26.208Z,1.93
2022-09-22T14:36:56.870Z,1.93
2022-09-22T14:39:32.226Z,1.10
2022-09-22T14:42:09.398Z,1.57
2022-09-22T14:44:46.352Z,2.37
2022-09-22T14:47:24.432Z,3.40
2022-09-22T14:50:08.825Z,3.20
2022-09-22T14:52:42.351Z,2.30
2022-09-22T14:55:18.253Z,1.58
2022-09-22T14:57:49.863Z,2.78
2022-09-22T15:00:36.747Z,2.78
2022-09-22T15:03:16.470Z,3.08
2022-09-22T15:05:45.614Z,2.55
2022-09-22T15:08:21.836Z,2.35
2022-09-22T15:10:54.494Z,3.38
2022-09-22T15:13:31.350Z,1.83
2022-09-22T15:16:01.325Z,1.83
2022-09-22T15:18:31.053Z,1.17
2022-09-22T15:21:05.585Z,3.83
2022-09-22T15:23:42.119Z,3.10
2022-09-22T15:26:18.435Z,3.03
2022-09-22T15:28:48.580Z,1.20
2022-09-22T15:31:27.037Z,1.75
2022-09-22T15:33:56.310Z,2.45
2022-09-22T15:36:28.318Z,1.75
2022-09-22T15:39:01.107Z,1.73
2022-09-22T15:41:29.726Z,1.55
2022-09-22T15:43:59.923Z,1.52
2022-09-22T15:46:34.052Z,2.75
2022-09-22T15:49:05.680Z,2.53
2022-09-22T15:51:34.799Z,1.55
2022-09-22T15:54:05.841Z,1.80
2022-09-22T15:56:34.579Z,1.40
2022-09-22T15:59:02.995Z,2.60
2022-09-22T16:01:31.334Z,1.58
2022-09-22T16:04:00.551Z,0.90
2022-09-22T16:06:29.265Z,2.78
2022-09-22T16:08:58.638Z,2.58
2022-09-22T16:11:30.160Z,2.05
2022-09-22T16:14:03.438Z,2.55
2022-09-22T16:16:36.445Z,2.45
2022-09-22T16:19:07.981Z,3.10
2022-09-22T16:21:38.170Z,3.22
2022-09-22T16:24:09.627Z,1.63
2022-09-22T16:26:41.320Z,1.92
2022-09-22T16:29:11.501Z,2.45
2022-09-22T16:31:42.508Z,1.95
2022-09-22T16:34:12.061Z,2.08
2022-09-22T16:36:42.218Z,1.58
2022-09-22T16:39:10.858Z,2.60
2022-09-22T16:41:45.913Z,2.25
2022-09-22T16:44:15.798Z,1.48
2022-09-22T16:46:44.639Z,1.92
2022-09-22T16:49:15.912Z,2.40
2022-09-22T16:51:47.004Z,2.08
2022-09-22T16:54:15.841Z,1.52
2022-09-22T16:56:48.124Z,3.53
2022-09-22T16:59:18.382Z,1.05
2022-09-22T17:01:52.502Z,3.40
2022-09-22T17:04:24.173Z,3.40
2022-09-22T17:06:56.258Z,1.63
2022-09-22T17:09:24.866Z,1.58
2022-09-22T17:11:58.124Z,5.20
2022-09-22T17:14:29.162Z,2.03
2022-09-22T17:17:06.766Z,8.73
2022-09-22T17:19:36.476Z,4.45
2022-09-22T17:22:08.707Z,7.13
2022-09-22T17:24:37.381Z,6.47
2022-09-22T17:27:08.910Z,11.63
2022-09-22T17:29:37.126Z,3.63
2022-09-22T17:32:08.810Z,4.33
2022-09-22T17:34:39.443Z,8.10
2022-09-22T17:37:07.688Z,8.17
2022-09-22T17:39:37.853Z,3.17
2022-09-22T17:42:10.673Z,2.70
2022-09-22T17:44:42.914Z,4.20
2022-09-22T17:47:29.554Z,2.80
2022-09-22T17:50:14.968Z,2.97
2022-09-22T17:53:01.008Z,4.47
2022-09-22T17:55:29.730Z,2.67
2022-09-22T17:57:59.401Z,2.70
2022-09-22T18:00:30.014Z,3.07
2022-09-22T18:02:58.807Z,1.17
2022-09-22T18:05:27.951Z,2.07
2022-09-22T18:07:59.224Z,1.50
2022-09-22T18:10:32.534Z,2.87
2022-09-22T18:13:04.302Z,4.37
2022-09-22T18:15:32.984Z,2.13
2022-09-22T18:18:01.564Z,2.53
2022-09-22T18:20:30.556Z,1.80
2022-09-22T18:23:00.525Z,2.30
2022-09-22T18:25:30.428Z,2.93
2022-09-22T18:28:01.613Z,2.00
2022-09-22T18:30:32.211Z,4.67
2022-09-22T18:33:02.999Z,2.90
2022-09-22T18:35:34.130Z,2.67
2022-09-22T18:38:02.241Z,2.50
2022-09-22T18:40:30.832Z,3.93
2022-09-22T18:43:02.560Z,5.17
2022-09-22T18:45:31.270Z,3.23
2022-09-22T18:48:03.061Z,3.60
2022-09-22T18:50:36.326Z,4.30
2022-09-22T18:53:04.846Z,2.50
2022-09-22T18:55:33.280Z,3.70
2022-09-22T18:58:03.148Z,5.40
2022-09-22T19:00:31.783Z,4.30
2022-09-22T19:03:00.656Z,3.80
2022-09-22T19:05:28.983Z,5.27
2022-09-22T19:08:00.561Z,3.77
2022-09-22T19:10:29.242Z,3.40
2022-09-22T19:12:57.620Z,3.23
2022-09-22T19:15:28.558Z,5.07
2022-09-22T19:17:57.515Z,5.50
2022-09-22T19:20:26.397Z,3.73
2022-09-22T19:22:59.115Z,4.20
2022-09-22T19:25:29.495Z,2.70
2022-09-22T19:27:58.183Z,2.27
2022-09-22T19:30:31.460Z,3.00
2022-09-22T19:33:00.731Z,3.13
2022-09-22T19:35:29.551Z,5.33
2022-09-22T19:37:58.667Z,4.57
2022-09-22T19:40:28.588Z,3.30
2022-09-22T19:42:57.002Z,5.60
2022-09-22T19:45:28.117Z,4.17
2022-09-22T19:47:58.627Z,3.57
2022-09-22T19:50:27.765Z,2.93
2022-09-22T19:52:56.525Z,5.40
2022-09-22T19:55:24.992Z,5.37
2022-09-22T19:57:54.366Z,4.03
2022-09-22T20:00:26.322Z,4.60
2022-09-22T20:02:59.401Z,6.43
2022-09-22T20:05:30.342Z,6.67
2022-09-22T20:07:59.671Z,4.60
2022-09-22T20:10:33.394Z,4.17
2022-09-22T20:13:24.856Z,4.87
2022-09-22T20:15:53.509Z,6.20
2022-09-22T20:18:23.593Z,5.30
2022-09-22T20:20:53.720Z,3.70
2022-09-22T20:23:25.997Z,5.13
2022-09-22T20:25:54.421Z,4.47
2022-09-22T20:28:23.047Z,4.27
2022-09-22T20:30:52.723Z,4.70
2022-09-22T20:33:24.939Z,3.80
2022-09-22T20:35:55.554Z,2.53
2022-09-22T20:38:24.253Z,2.70
2022-09-22T20:40:52.668Z,2.83
2022-09-22T20:43:21.305Z,5.83
2022-09-22T20:45:49.843Z,3.93
2022-09-22T20:48:23.418Z,2.30
2022-09-22T20:50:58.800Z,2.83
2022-09-22T20:53:28.236Z,3.33
2022-09-22T20:56:01.439Z,3.53
2022-09-22T20:58:32.523Z,5.13
2022-09-22T21:01:01.352Z,3.87
2022-09-22T21:03:30.342Z,2.57
2022-09-22T21:06:07.902Z,6.47
2022-09-22T21:08:56.685Z,4.10
2022-09-22T21:11:26.848Z,4.40
2022-09-22T21:14:02.112Z,2.50
2022-09-22T21:16:30.637Z,3.33
2022-09-22T21:19:12.553Z,3.13
2022-09-22T21:21:43.259Z,3.93
2022-09-22T21:24:12.771Z,2.57
2022-09-22T21:26:41.756Z,2.93
2022-09-22T21:29:11.075Z,2.87
2022-09-22T21:31:39.263Z,3.93
2022-09-22T21:34:07.743Z,2.80
2022-09-22T21:36:36.631Z,3.17
2022-09-22T21:39:06.697Z,3.23
2022-09-22T21:41:35.507Z,4.43
2022-09-22T21:44:05.431Z,2.57
2022-09-22T21:46:41.791Z,2.13
2022-09-22T21:49:11.472Z,3.90
2022-09-22T21:51:42.906Z,3.27
2022-09-22T21:54:16.907Z,3.43
2022-09-22T21:56:46.169Z,2.63
2022-09-22T21:59:15.626Z,3.30
2022-09-22T22:01:46.176Z,4.03
2022-09-22T22:04:16.569Z,2.97
2022-09-22T22:06:46.484Z,4.63
2022-09-22T22:09:18.739Z,2.87
2022-09-22T22:11:49.619Z,3.07
2022-09-22T22:14:20.374Z,3.67
2022-09-22T22:16:50.337Z,2.43
2022-09-22T22:19:21.305Z,2.07
2022-09-22T22:21:51.228Z,3.23
2022-09-22T22:24:42.828Z,2.70
2022-09-22T22:27:13.844Z,3.33
2022-09-22T22:29:42.072Z,2.77
2022-09-22T22:32:14.739Z,2.70
2022-09-22T22:34:43.125Z,4.03
2022-09-22T22:37:14.312Z,4.00
2022-09-22T22:39:44.519Z,4.73
2022-09-22T22:42:12.874Z,5.23
2022-09-22T22:44:41.990Z,3.27
2022-09-22T22:47:10.504Z,3.40
2022-09-22T22:49:38.856Z,3.70
2022-09-22T22:52:07.149Z,4.40
2022-09-22T22:54:38.927Z,3.57
2022-09-22T22:57:08.898Z,3.37
2022-09-22T22:59:37.296Z,5.33
2022-09-22T23:02:05.446Z,4.07
2022-09-22T23:04:33.868Z,3.80
2022-09-22T23:07:02.365Z,3.40
2022-09-22T23:09:30.612Z,4.30
2022-09-22T23:11:58.681Z,3.43
2022-09-22T23:14:28.786Z,4.73
2022-09-22T23:16:57.691Z,6.10
2022-09-22T23:19:26.294Z,3.17
2022-09-22T23:21:54.844Z,4.07
2022-09-22T23:24:22.973Z,3.33
2022-09-22T23:26:51.187Z,4.87
2022-09-22T23:29:19.628Z,3.67
2022-09-22T23:31:49.624Z,6.00
2022-09-22T23:34:18.521Z,4.10
2022-09-22T23:36:48.282Z,4.80
2022-09-22T23:39:17.778Z,2.80
2022-09-22T23:41:47.278Z,2.53
2022-09-22T23:44:15.412Z,2.50
2022-09-22T23:46:44.621Z,4.70
2022-09-22T23:49:14.572Z,4.70
2022-09-22T23:51:44.199Z,2.70
2022-09-22T23:54:14.291Z,3.93
2022-09-22T23:56:43.094Z,3.23
2022-09-22T23:59:11.664Z,4.23
